KHTL/HTL METAR and TAF weather

Enter ICAO airport designator
Station Type Date Time Source
KHTL METAR 2021/05/15 23:53 UTC NOAA

KHTL 152353Z AUTO 22003KT 10SM SCT090 OVC110 17/02 A3016 RMK AO2 SLP217 T01720017 10206 20172 58008


Station Type Date Time Source
KHTL Decoded METAR 2021/05/15 23:53 UTC NOAA

ROSCOMMON COUNTY AIRPORT, MI, United States (KHTL) 44-21N 084-40W 351M
May 15, 2021 - 07:53 PM EDT / 2021.05.15 2353 UTC
Wind: from the SW (220 degrees) at 3 MPH (3 KT):0
Visibility: 10 mile(s):0
Sky conditions: overcast
Temperature: 63.0 F (17.2 C)
Dew Point: 35.1 F (1.7 C)
Relative Humidity: 35%
Pressure (altimeter): 30.16 in. Hg (1021 hPa)
Pressure tendency: 0.02 inches (0.8 hPa) lower than three hours ago
ob: KHTL 152353Z AUTO 22003KT 10SM SCT090 OVC110 17/02 A3016 RMK AO2 SLP217 T01720017 10206 20172 58008
cycle: 0

Station Type Date Time Source
KHTL TAF UTC NOAA

Error!

Example: see airport list